createdAt,value
2016-12-04T00:00:44.431Z,19.41
2016-12-04T00:01:55.608Z,19.41
2016-12-04T00:03:07.326Z,19.36
2016-12-04T00:04:18.488Z,19.37
2016-12-04T00:05:29.647Z,19.46
2016-12-04T00:06:40.811Z,19.46
2016-12-04T00:07:51.989Z,19.51
2016-12-04T00:09:03.155Z,19.51
2016-12-04T00:10:14.337Z,19.5
2016-12-04T00:11:25.513Z,19.51
2016-12-04T00:12:36.679Z,19.46
2016-12-04T00:13:47.855Z,19.5
2016-12-04T00:14:59.028Z,19.47
2016-12-04T00:16:10.179Z,19.59
2016-12-04T00:17:21.370Z,19.58
2016-12-04T00:18:32.529Z,19.58
2016-12-04T00:19:43.693Z,19.65
2016-12-04T00:20:54.884Z,19.65
2016-12-04T00:22:06.074Z,19.62
2016-12-04T00:23:17.202Z,19.61
2016-12-04T00:24:28.372Z,19.5
2016-12-04T00:25:39.537Z,19.61
2016-12-04T00:26:50.713Z,19.58
2016-12-04T00:28:01.865Z,19.54
2016-12-04T00:29:13.031Z,19.61
2016-12-04T00:30:24.214Z,19.5
2016-12-04T00:31:35.391Z,19.55
2016-12-04T00:32:46.522Z,19.51
2016-12-04T00:33:57.686Z,19.58
2016-12-04T00:35:08.847Z,19.56
2016-12-04T00:36:20.018Z,19.56
2016-12-04T00:37:31.160Z,19.62
2016-12-04T00:38:42.345Z,19.59
2016-12-04T00:39:53.504Z,19.56
2016-12-04T00:41:04.674Z,19.55
2016-12-04T00:42:15.848Z,19.59
2016-12-04T00:43:26.996Z,19.58
2016-12-04T00:44:38.157Z,19.58
2016-12-04T00:45:49.328Z,19.5
2016-12-04T00:47:00.506Z,19.48
2016-12-04T00:48:11.667Z,19.47
2016-12-04T00:49:22.814Z,19.51
2016-12-04T00:50:33.956Z,19.46
2016-12-04T00:51:45.103Z,19.44
2016-12-04T00:52:56.274Z,19.47
2016-12-04T00:54:07.984Z,19.47
2016-12-04T00:55:19.128Z,19.48
2016-12-04T00:56:30.284Z,19.47
2016-12-04T00:57:41.462Z,19.59
2016-12-04T00:58:52.607Z,19.54
2016-12-04T01:00:04.318Z,19.62
2016-12-04T01:01:15.488Z,19.65
2016-12-04T01:02:26.639Z,19.76
2016-12-04T01:03:37.813Z,19.78
2016-12-04T01:04:48.993Z,19.69
2016-12-04T01:06:00.147Z,19.65
2016-12-04T01:07:11.317Z,19.74
2016-12-04T01:08:23.055Z,19.69
2016-12-04T01:09:34.251Z,19.71
2016-12-04T01:10:45.391Z,19.77
2016-12-04T01:11:56.560Z,19.71
2016-12-04T01:13:07.746Z,19.74
2016-12-04T01:14:18.915Z,19.68
2016-12-04T01:15:30.058Z,19.74
2016-12-04T01:16:41.228Z,19.81
2016-12-04T01:17:52.380Z,19.78
2016-12-04T01:19:03.516Z,19.74
2016-12-04T01:20:14.695Z,19.74
2016-12-04T01:21:25.864Z,19.76
2016-12-04T01:22:37.025Z,19.78
2016-12-04T01:23:48.218Z,19.81
2016-12-04T01:24:59.370Z,19.74
2016-12-04T01:26:10.510Z,19.94
2016-12-04T01:27:21.708Z,19.86
2016-12-04T01:28:32.850Z,19.83
2016-12-04T01:29:44.027Z,19.91
2016-12-04T01:30:55.300Z,19.81
2016-12-04T01:32:06.470Z,19.77
2016-12-04T01:33:18.176Z,19.74
2016-12-04T01:34:29.346Z,19.74
2016-12-04T01:35:40.505Z,19.76
2016-12-04T01:36:51.683Z,19.87
2016-12-04T01:38:02.850Z,19.87
2016-12-04T01:39:14.010Z,19.91
2016-12-04T01:40:25.170Z,19.91
2016-12-04T01:41:36.343Z,20.05
2016-12-04T01:42:47.496Z,19.96
2016-12-04T01:43:58.645Z,20.1
2016-12-04T01:45:10.370Z,20.05
2016-12-04T01:46:21.542Z,19.96
2016-12-04T01:47:32.695Z,20.08
2016-12-04T01:48:43.837Z,20.06
2016-12-04T01:49:54.993Z,20.08
2016-12-04T01:51:06.136Z,20.08
2016-12-04T01:52:17.284Z,20.18
2016-12-04T01:53:28.409Z,20.06
2016-12-04T01:54:39.605Z,20.18
2016-12-04T01:55:50.745Z,20.13
2016-12-04T01:57:01.902Z,20.05
2016-12-04T01:58:13.072Z,20.1
2016-12-04T01:59:24.228Z,20.08
2016-12-04T02:00:35.365Z,20.08
2016-12-04T02:01:46.542Z,20.1
2016-12-04T02:02:57.729Z,20.08
2016-12-04T02:04:08.901Z,20.2
2016-12-04T02:05:20.052Z,20.08
2016-12-04T02:06:31.202Z,20.06
2016-12-04T02:07:42.351Z,20.17
2016-12-04T02:08:53.524Z,20.23
2016-12-04T02:10:04.728Z,20.29
2016-12-04T02:11:15.892Z,20.28
2016-12-04T02:12:27.064Z,20.24
2016-12-04T02:13:38.219Z,20.26
2016-12-04T02:14:49.398Z,20.31
2016-12-04T02:16:00.540Z,20.23
2016-12-04T02:17:11.695Z,20.24
2016-12-04T02:18:22.864Z,20.29
2016-12-04T02:19:34.025Z,20.36
2016-12-04T02:20:45.178Z,20.32
2016-12-04T02:21:56.338Z,20.36
2016-12-04T02:23:07.523Z,20.41
2016-12-04T02:24:18.682Z,20.48
2016-12-04T02:25:29.828Z,20.43
2016-12-04T02:26:41.008Z,20.55
2016-12-04T02:27:52.187Z,20.58
2016-12-04T02:29:03.352Z,20.48
2016-12-04T02:30:14.496Z,20.43
2016-12-04T02:31:25.677Z,20.58
2016-12-04T02:32:36.800Z,20.47
2016-12-04T02:33:47.961Z,20.48
2016-12-04T02:34:59.118Z,20.55
2016-12-04T02:36:10.270Z,20.58
2016-12-04T02:37:21.411Z,20.47
2016-12-04T02:38:32.576Z,20.58
2016-12-04T02:39:43.732Z,20.52
2016-12-04T02:40:54.909Z,20.55
2016-12-04T02:42:06.097Z,20.61
2016-12-04T02:43:17.238Z,20.58
2016-12-04T02:44:28.392Z,20.61
2016-12-04T02:45:39.556Z,20.67
2016-12-04T02:46:50.720Z,20.59
2016-12-04T02:48:01.869Z,20.59
2016-12-04T02:49:13.064Z,20.66
2016-12-04T02:50:24.202Z,20.64
2016-12-04T02:51:35.391Z,20.61
2016-12-04T02:52:46.542Z,20.66
2016-12-04T02:53:57.693Z,20.59
2016-12-04T02:55:08.874Z,20.48
2016-12-04T02:56:20.061Z,20.58
2016-12-04T02:57:31.214Z,20.58
2016-12-04T02:58:42.399Z,20.61
2016-12-04T02:59:53.569Z,20.58
2016-12-04T03:01:04.754Z,20.58
2016-12-04T03:02:15.887Z,20.59
2016-12-04T03:03:27.054Z,20.61
2016-12-04T03:04:38.183Z,20.62
2016-12-04T03:05:49.344Z,20.62
2016-12-04T03:07:00.539Z,20.61
2016-12-04T03:08:11.741Z,20.59
2016-12-04T03:09:22.919Z,20.54
2016-12-04T03:10:34.075Z,20.47
2016-12-04T03:11:45.231Z,20.55
2016-12-04T03:12:56.424Z,20.58
2016-12-04T03:14:07.602Z,20.61
2016-12-04T03:15:18.792Z,20.58
2016-12-04T03:16:29.972Z,20.52
2016-12-04T03:17:41.194Z,20.58
2016-12-04T03:18:52.353Z,20.62
2016-12-04T03:20:03.507Z,20.62
2016-12-04T03:21:15.264Z,20.58
2016-12-04T03:22:26.455Z,20.59
2016-12-04T03:23:37.713Z,20.57
2016-12-04T03:24:48.892Z,20.58
2016-12-04T03:26:00.023Z,20.54
2016-12-04T03:27:11.242Z,20.55
2016-12-04T03:28:22.389Z,20.47
2016-12-04T03:29:33.525Z,20.43
2016-12-04T03:30:44.705Z,20.47
2016-12-04T03:31:55.837Z,20.42
2016-12-04T03:33:06.984Z,20.58
2016-12-04T03:34:18.145Z,20.5
2016-12-04T03:35:29.295Z,20.58
2016-12-04T03:36:40.445Z,20.58
2016-12-04T03:37:51.602Z,20.55
2016-12-04T03:39:02.772Z,20.58
2016-12-04T03:40:13.921Z,20.57
2016-12-04T03:41:25.081Z,20.47
2016-12-04T03:42:36.246Z,20.55
2016-12-04T03:43:47.394Z,20.42
2016-12-04T03:44:58.558Z,20.48
2016-12-04T03:46:09.727Z,20.59
2016-12-04T03:47:20.886Z,20.61
2016-12-04T03:48:32.038Z,20.67
2016-12-04T03:49:43.208Z,20.61
2016-12-04T03:50:54.351Z,20.66
2016-12-04T03:52:06.090Z,20.51
2016-12-04T03:53:18.779Z,20.58
2016-12-04T03:54:29.933Z,20.66
2016-12-04T03:55:41.089Z,20.54
2016-12-04T03:56:52.254Z,20.64
2016-12-04T03:58:03.414Z,20.58
2016-12-04T03:59:14.566Z,20.62
2016-12-04T04:00:25.721Z,20.61
2016-12-04T04:01:36.899Z,20.59
2016-12-04T04:02:48.073Z,20.7
2016-12-04T04:03:59.246Z,20.74
2016-12-04T04:05:10.420Z,20.7
2016-12-04T04:06:21.580Z,20.74
2016-12-04T04:07:32.732Z,20.77
2016-12-04T04:08:43.872Z,20.7
2016-12-04T04:09:55.022Z,20.72
2016-12-04T04:11:06.197Z,20.61
2016-12-04T04:12:17.367Z,20.62
2016-12-04T04:13:28.560Z,20.61
2016-12-04T04:14:39.732Z,20.73
2016-12-04T04:15:50.880Z,20.61
2016-12-04T04:17:02.038Z,20.51
2016-12-04T04:18:13.224Z,20.48
2016-12-04T04:19:24.363Z,20.5
2016-12-04T04:20:36.110Z,20.52
2016-12-04T04:21:47.290Z,20.48
2016-12-04T04:22:58.463Z,20.58
2016-12-04T04:24:09.652Z,20.48
2016-12-04T04:25:20.806Z,20.7
2016-12-04T04:26:31.955Z,20.67
2016-12-04T04:27:43.123Z,20.67
2016-12-04T04:28:54.274Z,20.66
2016-12-04T04:30:05.435Z,20.67
2016-12-04T04:31:18.979Z,20.54
2016-12-04T04:32:30.511Z,20.61
2016-12-04T04:33:41.658Z,20.51
2016-12-04T04:34:52.803Z,20.17
2016-12-04T04:36:03.967Z,20.01
2016-12-04T04:37:18.636Z,19.77
2016-12-04T04:38:30.663Z,19.68
2016-12-04T04:39:41.812Z,19.63
2016-12-04T04:40:52.971Z,19.47
2016-12-04T04:42:04.137Z,19.56
2016-12-04T04:43:15.293Z,19.59
2016-12-04T04:44:26.468Z,19.61
2016-12-04T04:45:37.630Z,19.65
2016-12-04T04:46:48.805Z,19.65
2016-12-04T04:47:59.973Z,19.66
2016-12-04T04:49:11.119Z,19.59
2016-12-04T04:50:23.237Z,19.69
2016-12-04T04:51:34.729Z,19.8
2016-12-04T04:52:45.869Z,19.74
2016-12-04T04:53:57.021Z,19.83
2016-12-04T04:55:08.164Z,19.81
2016-12-04T04:56:19.357Z,19.8
2016-12-04T04:57:30.544Z,19.78
2016-12-04T04:58:42.266Z,19.87
2016-12-04T04:59:53.418Z,19.83
2016-12-04T05:01:05.133Z,19.96
2016-12-04T05:02:16.307Z,19.84
2016-12-04T05:03:27.498Z,19.8
2016-12-04T05:04:38.659Z,19.84
2016-12-04T05:05:49.824Z,19.87
2016-12-04T05:07:00.999Z,19.83
2016-12-04T05:08:12.157Z,20.11
2016-12-04T05:09:23.309Z,20.01
2016-12-04T05:10:34.446Z,19.95
2016-12-04T05:11:45.614Z,19.98
2016-12-04T05:12:56.799Z,20.16
2016-12-04T05:14:07.929Z,20.06
2016-12-04T05:15:19.666Z,20.11
2016-12-04T05:16:30.856Z,20.11
2016-12-04T05:17:42.018Z,19.96
2016-12-04T05:18:53.172Z,19.94
2016-12-04T05:20:04.349Z,19.98
2016-12-04T05:21:15.484Z,20.03
2016-12-04T05:22:26.662Z,19.96
2016-12-04T05:23:37.835Z,19.98
2016-12-04T05:24:48.976Z,20.05
2016-12-04T05:26:00.143Z,20.16
2016-12-04T05:27:11.329Z,20.13
2016-12-04T05:28:22.477Z,20.13
2016-12-04T05:29:34.204Z,20.13
2016-12-04T05:30:45.360Z,20.1
2016-12-04T05:31:56.518Z,20.06
2016-12-04T05:33:07.704Z,20.11
2016-12-04T05:34:18.859Z,20.05
2016-12-04T05:35:30.005Z,20.05
2016-12-04T05:36:41.762Z,20.21
2016-12-04T05:37:52.925Z,20.23
2016-12-04T05:39:04.091Z,20.23
2016-12-04T05:40:15.261Z,20.28
2016-12-04T05:41:26.460Z,20.28
2016-12-04T05:42:37.607Z,20.24
2016-12-04T05:43:48.786Z,20.17
2016-12-04T05:44:59.933Z,20.17
2016-12-04T05:46:11.082Z,20.17
2016-12-04T05:47:22.217Z,20.21
2016-12-04T05:48:33.364Z,20.21
2016-12-04T05:49:44.501Z,20.23
2016-12-04T05:50:55.652Z,20.28
2016-12-04T05:52:06.802Z,20.2
2016-12-04T05:53:17.988Z,20.28
2016-12-04T05:54:29.155Z,20.24
2016-12-04T05:55:40.316Z,20.24
2016-12-04T05:56:51.479Z,20.21
2016-12-04T05:58:02.642Z,20.26
2016-12-04T05:59:13.781Z,20.32
2016-12-04T06:00:24.926Z,20.21
2016-12-04T06:01:36.074Z,20.26
2016-12-04T06:02:47.240Z,20.32
2016-12-04T06:03:58.406Z,20.33
2016-12-04T06:05:09.596Z,20.39
2016-12-04T06:06:20.770Z,20.32
2016-12-04T06:07:31.948Z,20.41
2016-12-04T06:08:43.085Z,20.47
2016-12-04T06:09:54.246Z,20.58
2016-12-04T06:11:05.387Z,20.48
2016-12-04T06:12:16.540Z,20.57
2016-12-04T06:13:27.716Z,20.58
2016-12-04T06:14:38.889Z,20.52
2016-12-04T06:15:50.047Z,20.51
2016-12-04T06:17:01.192Z,20.51
2016-12-04T06:18:12.351Z,20.62
2016-12-04T06:19:23.510Z,20.59
2016-12-04T06:20:34.677Z,20.62
2016-12-04T06:21:45.853Z,20.67
2016-12-04T06:22:57.000Z,20.58
2016-12-04T06:24:08.149Z,20.72
2016-12-04T06:25:19.312Z,20.74
2016-12-04T06:26:30.472Z,20.74
2016-12-04T06:27:41.661Z,20.74
2016-12-04T06:28:52.836Z,20.7
2016-12-04T06:30:04.003Z,20.74
2016-12-04T06:31:15.447Z,20.74
2016-12-04T06:32:26.632Z,20.66
2016-12-04T06:33:37.787Z,20.66
2016-12-04T06:34:49.112Z,20.74
2016-12-04T06:36:00.293Z,20.79
2016-12-04T06:37:11.445Z,20.69
2016-12-04T06:38:22.589Z,20.74
2016-12-04T06:39:33.751Z,20.72
2016-12-04T06:40:44.918Z,20.73
2016-12-04T06:41:56.626Z,20.67
2016-12-04T06:43:07.794Z,20.74
2016-12-04T06:44:18.997Z,20.8
2016-12-04T06:45:30.174Z,20.77
2016-12-04T06:46:41.343Z,20.73
2016-12-04T06:47:52.497Z,20.79
2016-12-04T06:49:03.686Z,20.79
2016-12-04T06:50:14.865Z,20.77
2016-12-04T06:51:26.034Z,20.82
2016-12-04T06:52:38.337Z,20.76
2016-12-04T06:53:49.491Z,20.82
2016-12-04T06:55:00.645Z,20.82
2016-12-04T06:56:11.789Z,20.79
2016-12-04T06:57:22.961Z,20.77
2016-12-04T06:58:34.110Z,20.79
2016-12-04T06:59:45.268Z,20.77
2016-12-04T07:00:56.415Z,20.89
2016-12-04T07:02:08.155Z,20.87
2016-12-04T07:03:19.326Z,20.85
2016-12-04T07:04:30.509Z,20.89
2016-12-04T07:05:41.660Z,20.92
2016-12-04T07:06:52.830Z,20.95
2016-12-04T07:08:03.986Z,20.89
2016-12-04T07:09:15.153Z,20.92
2016-12-04T07:10:26.325Z,20.91
2016-12-04T07:11:37.476Z,20.91
2016-12-04T07:12:48.630Z,20.94
2016-12-04T07:13:59.790Z,20.91
2016-12-04T07:15:10.970Z,20.95
2016-12-04T07:16:22.125Z,20.95
2016-12-04T07:17:33.289Z,20.97
2016-12-04T07:18:44.447Z,20.97
2016-12-04T07:19:55.626Z,21.01
2016-12-04T07:21:06.779Z,20.99
2016-12-04T07:22:17.923Z,20.91
2016-12-04T07:23:29.082Z,20.94
2016-12-04T07:24:40.264Z,20.95
2016-12-04T07:25:51.441Z,20.92
2016-12-04T07:27:02.615Z,20.94
2016-12-04T07:28:13.774Z,20.94
2016-12-04T07:29:24.941Z,20.89
2016-12-04T07:30:36.096Z,20.94
2016-12-04T07:31:47.236Z,20.94
2016-12-04T07:32:58.398Z,20.94
2016-12-04T07:34:09.554Z,20.91
2016-12-04T07:35:20.741Z,20.92
2016-12-04T07:36:31.916Z,20.94
2016-12-04T07:37:43.068Z,20.95
2016-12-04T07:38:54.235Z,20.89
2016-12-04T07:40:05.382Z,20.84
2016-12-04T07:41:16.555Z,20.8
2016-12-04T07:42:27.705Z,20.8
2016-12-04T07:43:38.847Z,20.8
2016-12-04T07:44:50.012Z,20.87
2016-12-04T07:46:01.181Z,20.92
2016-12-04T07:47:12.334Z,20.85
2016-12-04T07:48:23.482Z,20.97
2016-12-04T07:49:34.659Z,20.89
2016-12-04T07:50:45.816Z,20.91
2016-12-04T07:51:56.994Z,20.91
2016-12-04T07:53:08.152Z,20.92
2016-12-04T07:54:19.326Z,20.92
2016-12-04T07:55:30.470Z,20.91
2016-12-04T07:56:41.675Z,20.89
2016-12-04T07:57:52.855Z,21.01
2016-12-04T07:59:04.008Z,20.95
2016-12-04T08:00:15.175Z,20.88
2016-12-04T08:01:26.347Z,20.92
2016-12-04T08:02:37.487Z,20.79
2016-12-04T08:03:48.649Z,20.72
2016-12-04T08:04:59.803Z,20.77
2016-12-04T08:06:10.953Z,20.82
2016-12-04T08:07:22.132Z,20.79
2016-12-04T08:08:33.839Z,20.85
2016-12-04T08:09:44.992Z,20.8
2016-12-04T08:10:56.146Z,20.77
2016-12-04T08:12:07.287Z,20.76
2016-12-04T08:13:18.455Z,20.74
2016-12-04T08:14:29.596Z,20.51
2016-12-04T08:15:40.757Z,20.67
2016-12-04T08:16:51.901Z,20.58
2016-12-04T08:18:03.052Z,20.7
2016-12-04T08:19:14.231Z,20.64
2016-12-04T08:20:25.982Z,20.7
2016-12-04T08:21:37.175Z,20.69
2016-12-04T08:22:48.334Z,20.61
2016-12-04T08:23:59.491Z,20.62
2016-12-04T08:25:10.638Z,20.55
2016-12-04T08:26:21.781Z,20.43
2016-12-04T08:27:32.971Z,20.57
2016-12-04T08:28:44.145Z,20.52
2016-12-04T08:29:55.290Z,20.47
2016-12-04T08:31:06.457Z,20.32
2016-12-04T08:32:17.587Z,20.26
2016-12-04T08:33:28.743Z,20.33
2016-12-04T08:34:39.900Z,20.41
2016-12-04T08:35:51.601Z,20.29
2016-12-04T08:37:03.325Z,20.39
2016-12-04T08:38:14.501Z,20.29
2016-12-04T08:39:25.664Z,20.06
2016-12-04T08:40:36.834Z,20.01
2016-12-04T08:41:47.998Z,20.11
2016-12-04T08:42:59.166Z,20.1
2016-12-04T08:44:10.336Z,20.24
2016-12-04T08:45:21.492Z,20.32
2016-12-04T08:46:32.648Z,20.32
2016-12-04T08:47:43.835Z,20.41
2016-12-04T08:48:54.982Z,20.52
2016-12-04T08:50:06.150Z,20.42
2016-12-04T08:51:17.318Z,20.47
2016-12-04T08:52:28.479Z,20.47
2016-12-04T08:53:39.628Z,20.47
2016-12-04T08:54:50.795Z,20.61
2016-12-04T08:56:02.558Z,20.58
2016-12-04T08:57:13.744Z,20.57
2016-12-04T08:58:24.887Z,20.55
2016-12-04T08:59:36.083Z,20.58
2016-12-04T09:00:47.237Z,20.58
2016-12-04T09:01:58.372Z,20.57
2016-12-04T09:03:09.504Z,20.54
2016-12-04T09:04:20.658Z,20.51
2016-12-04T09:05:31.805Z,20.57
2016-12-04T09:06:42.982Z,20.52
2016-12-04T09:07:54.110Z,20.5
2016-12-04T09:09:05.260Z,20.58
2016-12-04T09:10:16.989Z,20.58
2016-12-04T09:11:28.146Z,20.47
2016-12-04T09:12:39.304Z,20.5
2016-12-04T09:13:50.473Z,20.43
2016-12-04T09:15:02.175Z,20.58
2016-12-04T09:16:13.385Z,20.52
2016-12-04T09:17:24.541Z,20.58
2016-12-04T09:18:35.693Z,20.67
2016-12-04T09:19:46.852Z,20.77
2016-12-04T09:20:57.985Z,20.76
2016-12-04T09:22:09.155Z,20.92
2016-12-04T09:23:20.319Z,20.91
2016-12-04T09:24:31.479Z,21.14
2016-12-04T09:25:42.644Z,21.27
2016-12-04T09:26:53.791Z,21.34
2016-12-04T09:28:04.935Z,21.43
2016-12-04T09:29:16.088Z,21.43
2016-12-04T09:30:27.245Z,21.35
2016-12-04T09:31:38.422Z,21.37
2016-12-04T09:32:50.158Z,21.44
2016-12-04T09:34:01.328Z,21.68
2016-12-04T09:35:12.504Z,21.65
2016-12-04T09:36:23.669Z,21.65
2016-12-04T09:37:34.863Z,21.47
2016-12-04T09:38:46.035Z,21.5
2016-12-04T09:39:57.227Z,21.52
2016-12-04T09:41:08.385Z,21.71
2016-12-04T09:42:19.524Z,21.68
2016-12-04T09:43:30.691Z,21.54
2016-12-04T09:44:41.842Z,21.5
2016-12-04T09:45:53.016Z,21.25
2016-12-04T09:47:04.176Z,21.13
2016-12-04T09:48:15.318Z,20.91
2016-12-04T09:49:26.471Z,20.88
2016-12-04T09:50:37.638Z,20.79
2016-12-04T09:51:48.797Z,20.79
2016-12-04T09:52:59.963Z,20.73
2016-12-04T09:54:11.113Z,20.87
2016-12-04T09:55:22.322Z,20.76
2016-12-04T09:56:33.497Z,20.7
2016-12-04T09:57:44.666Z,20.76
2016-12-04T09:58:55.829Z,20.91
2016-12-04T10:00:07.576Z,20.77
2016-12-04T10:01:18.795Z,20.94
2016-12-04T10:02:29.947Z,21.07
2016-12-04T10:03:41.096Z,21.09
2016-12-04T10:04:52.251Z,21.24
2016-12-04T10:06:03.419Z,21.34
2016-12-04T10:07:14.589Z,21.54
2016-12-04T10:08:25.770Z,21.59
2016-12-04T10:09:36.932Z,21.8
2016-12-04T10:10:48.083Z,21.9
2016-12-04T10:11:59.247Z,21.79
2016-12-04T10:13:10.996Z,21.74
2016-12-04T10:14:22.201Z,21.52
2016-12-04T10:15:33.372Z,21.49
2016-12-04T10:16:44.536Z,21.54
2016-12-04T10:17:55.723Z,21.98
2016-12-04T10:19:06.871Z,22.37
2016-12-04T10:20:18.021Z,22.54
2016-12-04T10:21:29.186Z,22.62
2016-12-04T10:22:40.342Z,22.46
2016-12-04T10:23:51.477Z,22.42
2016-12-04T10:25:02.630Z,22.12
2016-12-04T10:26:13.796Z,22.12
2016-12-04T10:27:24.956Z,22.21
2016-12-04T10:28:36.694Z,22.18
2016-12-04T10:29:47.844Z,22.47
2016-12-04T10:30:59.005Z,22.3
2016-12-04T10:32:10.158Z,22.36
2016-12-04T10:33:21.348Z,22.17
2016-12-04T10:34:32.502Z,22.21
2016-12-04T10:35:43.665Z,22.2
2016-12-04T10:36:54.830Z,22.2
2016-12-04T10:38:06.542Z,22.07
2016-12-04T10:39:17.678Z,22.14
2016-12-04T10:40:28.903Z,22.31
2016-12-04T10:41:40.091Z,22.55
2016-12-04T10:42:51.844Z,22.72
2016-12-04T10:44:02.999Z,22.82
2016-12-04T10:45:14.192Z,22.7
2016-12-04T10:46:25.347Z,22.42
2016-12-04T10:47:36.512Z,22.22
2016-12-04T10:48:48.289Z,22.33
2016-12-04T10:49:59.474Z,22.51
2016-12-04T10:51:11.331Z,22.62
2016-12-04T10:52:22.503Z,22.76
2016-12-04T10:53:33.685Z,22.76
2016-12-04T10:54:44.815Z,22.65
2016-12-04T10:55:56.022Z,22.55
2016-12-04T10:57:07.196Z,22.6
2016-12-04T10:58:18.383Z,22.65
2016-12-04T10:59:29.574Z,22.79
2016-12-04T11:00:41.290Z,23.09
2016-12-04T11:01:52.463Z,23.15
2016-12-04T11:03:04.196Z,23.55
2016-12-04T11:04:15.363Z,23.63
2016-12-04T11:05:26.518Z,23.78
2016-12-04T11:06:37.707Z,23.79
2016-12-04T11:07:48.857Z,23.51
2016-12-04T11:09:00.003Z,23.6
2016-12-04T11:10:11.201Z,23.7
2016-12-04T11:11:22.358Z,23.75
2016-12-04T11:12:33.532Z,23.47
2016-12-04T11:13:44.712Z,23.65
2016-12-04T11:14:55.858Z,23.72
2016-12-04T11:16:07.052Z,23.87
2016-12-04T11:17:18.208Z,24.24
2016-12-04T11:18:29.373Z,24.32
2016-12-04T11:19:40.548Z,23.95
2016-12-04T11:20:51.705Z,24.21
2016-12-04T11:22:02.874Z,24.34
2016-12-04T11:23:14.034Z,24.28
2016-12-04T11:24:25.213Z,24.12
2016-12-04T11:25:36.430Z,24.21
2016-12-04T11:26:47.603Z,24.12
2016-12-04T11:27:59.331Z,24.24
2016-12-04T11:29:10.468Z,24.3
2016-12-04T11:30:21.633Z,24.61
2016-12-04T11:31:32.799Z,24.78
2016-12-04T11:32:43.953Z,24.99
2016-12-04T11:33:55.127Z,24.76
2016-12-04T11:35:06.297Z,24.32
2016-12-04T11:36:17.452Z,23.87
2016-12-04T11:37:28.600Z,23.98
2016-12-04T11:38:39.768Z,24.09
2016-12-04T11:39:50.947Z,24.12
2016-12-04T11:41:02.106Z,24.27
2016-12-04T11:42:13.279Z,24.15
2016-12-04T11:43:24.461Z,23.93
2016-12-04T11:44:35.616Z,24.03
2016-12-04T11:45:46.798Z,23.9
2016-12-04T11:46:57.963Z,23.7
2016-12-04T11:48:09.153Z,23.61
2016-12-04T11:49:20.340Z,23.5
2016-12-04T11:50:31.508Z,23.73
2016-12-04T11:51:43.247Z,23.83
2016-12-04T11:52:54.427Z,24.12
2016-12-04T11:54:05.595Z,24.08
2016-12-04T11:55:16.754Z,24.12
2016-12-04T11:56:27.953Z,24.03
2016-12-04T11:57:39.146Z,24.06
2016-12-04T11:58:50.312Z,23.95
2016-12-04T12:00:01.479Z,24.16
2016-12-04T12:01:13.231Z,24.09
2016-12-04T12:02:24.401Z,24.08
2016-12-04T12:03:35.596Z,23.83
2016-12-04T12:04:46.777Z,24.08
2016-12-04T12:05:58.508Z,23.98
2016-12-04T12:07:09.674Z,23.8
2016-12-04T12:08:20.854Z,23.7
2016-12-04T12:09:32.037Z,23.83
2016-12-04T12:10:43.214Z,24.22
2016-12-04T12:11:54.362Z,24
2016-12-04T12:13:05.510Z,24.22
2016-12-04T12:14:16.719Z,24.73
2016-12-04T12:15:27.903Z,24.58
2016-12-04T12:16:39.052Z,24.45
2016-12-04T12:17:50.229Z,24.09
2016-12-04T12:19:01.397Z,24.15
2016-12-04T12:20:12.571Z,24.32
2016-12-04T12:21:23.734Z,24.55
2016-12-04T12:22:34.888Z,24.98
2016-12-04T12:23:46.612Z,25.02
2016-12-04T12:24:57.801Z,25.28
2016-12-04T12:26:08.971Z,25.6
2016-12-04T12:27:20.161Z,25.58
2016-12-04T12:28:31.342Z,25.55
2016-12-04T12:29:42.519Z,25.52
2016-12-04T12:30:53.698Z,25.42
2016-12-04T12:32:04.870Z,25
2016-12-04T12:33:16.053Z,25.02
2016-12-04T12:34:27.794Z,25.36
2016-12-04T12:35:38.972Z,25.57
2016-12-04T12:36:50.172Z,25.43
2016-12-04T12:38:01.339Z,25.39
2016-12-04T12:39:12.548Z,25.4
2016-12-04T12:40:23.744Z,25.39
2016-12-04T12:41:34.893Z,25.25
2016-12-04T12:42:46.066Z,25.32
2016-12-04T12:43:57.225Z,25.61
2016-12-04T12:45:08.443Z,25.79
2016-12-04T12:46:19.599Z,25.87
2016-12-04T12:47:30.761Z,26.23
2016-12-04T12:48:41.917Z,26.07
2016-12-04T12:49:53.080Z,26.17
2016-12-04T12:51:04.809Z,26.18
2016-12-04T12:52:15.994Z,26.18
2016-12-04T12:53:27.150Z,25.47
2016-12-04T12:54:38.335Z,25.14
2016-12-04T12:55:49.488Z,24.91
2016-12-04T12:57:00.666Z,24.55
2016-12-04T12:58:11.851Z,24.43
2016-12-04T12:59:23.026Z,24.71
2016-12-04T13:00:34.156Z,25.06
2016-12-04T13:01:45.350Z,25.32
2016-12-04T13:02:56.541Z,25.45
2016-12-04T13:04:07.713Z,25.55
2016-12-04T13:05:18.913Z,25.43
2016-12-04T13:06:30.087Z,25.23
2016-12-04T13:07:41.254Z,25.35
2016-12-04T13:08:52.407Z,25.7
2016-12-04T13:10:03.548Z,26.25
2016-12-04T13:11:14.681Z,26.73
2016-12-04T13:12:25.827Z,27.12
2016-12-04T13:13:36.986Z,27.29
2016-12-04T13:14:48.174Z,27.41
2016-12-04T13:15:59.332Z,26.62
2016-12-04T13:17:10.513Z,25.83
2016-12-04T13:18:21.718Z,25.35
2016-12-04T13:19:32.895Z,25.58
2016-12-04T13:20:44.100Z,25.6
2016-12-04T13:21:55.249Z,25.39
2016-12-04T13:23:06.402Z,25.83
2016-12-04T13:24:17.564Z,25.95
2016-12-04T13:25:28.741Z,25.77
2016-12-04T13:26:39.894Z,25.65
2016-12-04T13:27:51.056Z,25.73
2016-12-04T13:29:02.202Z,25.8
2016-12-04T13:30:13.357Z,25.91
2016-12-04T13:31:24.611Z,25.82
2016-12-04T13:32:35.842Z,25.94
2016-12-04T13:33:47.026Z,26.26
2016-12-04T13:34:58.205Z,26.63
2016-12-04T13:36:09.380Z,26.66
2016-12-04T13:37:20.555Z,26.89
2016-12-04T13:38:31.725Z,27.02
2016-12-04T13:39:42.928Z,27.14
2016-12-04T13:40:54.101Z,27.32
2016-12-04T13:42:05.258Z,27.46
2016-12-04T13:43:16.983Z,27.7
2016-12-04T13:44:28.134Z,27.78
2016-12-04T13:45:39.307Z,27.87
2016-12-04T13:46:50.483Z,27.57
2016-12-04T13:48:01.666Z,27.55
2016-12-04T13:49:12.835Z,27.46
2016-12-04T13:50:23.979Z,27.4
2016-12-04T13:51:35.335Z,27.28
2016-12-04T13:52:46.493Z,27.22
2016-12-04T13:53:57.682Z,26.82
2016-12-04T13:55:08.862Z,26.66
2016-12-04T13:56:20.027Z,26.6
2016-12-04T13:57:31.229Z,26.6
2016-12-04T13:58:42.394Z,26.91
2016-12-04T13:59:53.579Z,27.29
2016-12-04T14:01:04.732Z,27.32
2016-12-04T14:02:15.897Z,26.6
2016-12-04T14:03:27.078Z,26.23
2016-12-04T14:04:38.266Z,26.37
2016-12-04T14:05:49.428Z,26.07
2016-12-04T14:07:00.614Z,26.39
2016-12-04T14:08:11.800Z,26.57
2016-12-04T14:09:22.967Z,26.69
2016-12-04T14:10:34.137Z,27
2016-12-04T14:11:45.306Z,27.06
2016-12-04T14:12:56.482Z,27.07
2016-12-04T14:14:07.650Z,26.88
2016-12-04T14:15:18.841Z,26.66
2016-12-04T14:16:30.011Z,26.54
2016-12-04T14:17:41.150Z,26.18
2016-12-04T14:18:52.292Z,26.05
2016-12-04T14:20:03.453Z,26.51
2016-12-04T14:21:14.633Z,26.62
2016-12-04T14:22:25.807Z,26.62
2016-12-04T14:23:36.968Z,26.55
2016-12-04T14:24:48.145Z,26.45
2016-12-04T14:25:59.284Z,26.3
2016-12-04T14:27:10.457Z,26.26
2016-12-04T14:28:21.650Z,26.65
2016-12-04T14:29:32.808Z,26.97
2016-12-04T14:30:43.966Z,27.25
2016-12-04T14:31:55.148Z,27.22
2016-12-04T14:33:06.294Z,27.25
2016-12-04T14:34:17.469Z,27.24
2016-12-04T14:35:28.621Z,27.65
2016-12-04T14:36:39.799Z,27.55
2016-12-04T14:37:50.996Z,27.36
2016-12-04T14:39:02.141Z,27.02
2016-12-04T14:40:13.317Z,26.8
2016-12-04T14:41:24.505Z,26.65
2016-12-04T14:42:35.666Z,26.48
2016-12-04T14:43:46.810Z,26.6
2016-12-04T14:44:57.994Z,27
2016-12-04T14:46:09.211Z,27.49
2016-12-04T14:47:20.399Z,27.54
2016-12-04T14:48:31.559Z,27.43
2016-12-04T14:49:42.710Z,27.55
2016-12-04T14:50:53.914Z,27.66
2016-12-04T14:52:05.073Z,27.44
2016-12-04T14:53:16.217Z,27.07
2016-12-04T14:54:27.421Z,27
2016-12-04T14:55:38.603Z,27
2016-12-04T14:56:49.800Z,26.7
2016-12-04T14:58:00.965Z,26.6
2016-12-04T14:59:12.136Z,26.43
2016-12-04T15:00:23.318Z,26.6
2016-12-04T15:01:34.511Z,26.84
2016-12-04T15:02:45.708Z,27.21
2016-12-04T15:03:56.892Z,27.63
2016-12-04T15:05:08.095Z,27.72
2016-12-04T15:06:19.249Z,27.87
2016-12-04T15:07:30.420Z,27.9
2016-12-04T15:08:41.590Z,27.88
2016-12-04T15:09:52.787Z,28.03
2016-12-04T15:11:03.951Z,28.15
2016-12-04T15:12:15.093Z,28.7
2016-12-04T15:13:26.286Z,28.61
2016-12-04T15:14:37.476Z,27.96
2016-12-04T15:15:48.662Z,27.65
2016-12-04T15:16:59.851Z,27.85
2016-12-04T15:18:11.023Z,27.88
2016-12-04T15:19:22.193Z,28.14
2016-12-04T15:20:33.557Z,28.27